Time;durP1;ratioP1;P1;durP2;ratioP2;P2;SDS_P1;SDS_P2;PMS_P1;PMS_P2;Temp;Humidity;BMP_temperature;BMP_pressure;BME280_temperature;BME280_humidity;BME280_pressure;Samples;Min_cycle;Max_cycle;Signal;HPM_P1;HPM_P2
2021/12/04 00:01:10;;;;;;;56.90;32.85;;;;;;;6.15;100.00;99844.66;5067073;27;20708;-66
2021/12/04 00:03:40;;;;;;;53.80;33.80;;;;;;;6.00;100.00;99839.25;5119425;27;20110;-66
2021/12/04 00:06:16;;;;;;;52.20;33.90;;;;;;;5.91;100.00;99838.19;5102638;27;20023;-66
2021/12/04 00:08:45;;;;;;;49.75;33.15;;;;;;;6.06;100.00;99833.53;5117180;27;20084;-66
2021/12/04 00:11:10;;;;;;;55.90;33.95;;;;;;;5.97;100.00;99826.19;5116779;27;20315;-66
2021/12/04 00:13:37;;;;;;;51.55;33.03;;;;;;;6.00;100.00;99821.03;5121199;27;20046;-66
2021/12/04 00:16:03;;;;;;;53.15;32.92;;;;;;;6.11;100.00;99821.81;5082664;27;20351;-67
2021/12/04 00:18:29;;;;;;;55.45;33.67;;;;;;;5.87;100.00;99816.97;5126080;27;20085;-66
2021/12/04 00:20:54;;;;;;;59.55;34.10;;;;;;;6.12;100.00;99807.13;5110217;27;20035;-68
2021/12/04 00:23:20;;;;;;;50.53;32.60;;;;;;;6.22;100.00;99807.06;5120609;27;20488;-66
2021/12/04 00:25:45;;;;;;;50.88;31.67;;;;;;;6.17;100.00;99798.94;5118443;27;20075;-67
2021/12/04 00:28:10;;;;;;;56.80;33.10;;;;;;;6.16;100.00;99805.47;5103825;27;20134;-66
2021/12/04 00:30:36;;;;;;;52.65;32.05;;;;;;;6.20;100.00;99808.47;5100656;27;20038;-66
2021/12/04 00:33:18;;;;;;;53.15;32.72;;;;;;;5.96;100.00;99813.66;5121781;27;20137;-66
2021/12/04 00:35:46;;;;;;;52.17;31.50;;;;;;;6.07;100.00;99810.66;5105377;27;20047;-66
2021/12/04 00:49:08;;;;;;;55.60;32.92;;;;;;;6.10;100.00;99801.16;5118753;27;20038;-66
2021/12/04 00:51:34;;;;;;;54.25;31.58;;;;;;;5.99;100.00;99808.53;5121233;27;20106;-67
2021/12/04 00:53:59;;;;;;;50.40;31.05;;;;;;;6.19;100.00;99790.50;5098105;27;20102;-66
2021/12/04 00:56:25;;;;;;;57.08;31.58;;;;;;;6.29;100.00;99795.06;5099668;27;20038;-67
2021/12/04 00:58:51;;;;;;;55.72;33.90;;;;;;;6.13;100.00;99797.03;5083671;27;20152;-66
2021/12/04 01:01:19;;;;;;;55.05;32.78;;;;;;;6.12;100.00;99801.69;5084412;27;20042;-66
2021/12/04 01:03:45;;;;;;;58.92;33.72;;;;;;;6.00;100.00;99790.28;5121751;27;20023;-66
2021/12/04 01:06:11;;;;;;;50.33;32.20;;;;;;;6.24;100.00;99777.66;5118614;27;20146;-67
2021/12/04 01:08:38;;;;;;;52.92;31.30;;;;;;;6.20;100.00;99782.06;5119359;27;20015;-66
2021/12/04 01:11:04;;;;;;;53.90;31.25;;;;;;;6.18;100.00;99775.25;5080437;27;20056;-66
2021/12/04 01:13:32;;;;;;;56.75;31.92;;;;;;;6.12;100.00;99768.22;5102585;27;20414;-66
2021/12/04 01:15:58;;;;;;;54.78;32.33;;;;;;;6.25;100.00;99773.06;5114447;27;20473;-66
2021/12/04 01:18:23;;;;;;;53.13;31.25;;;;;;;6.28;100.00;99767.06;5121435;27;20509;-66
2021/12/04 01:20:48;;;;;;;56.47;31.67;;;;;;;6.21;100.00;99759.16;5101695;27;20023;-67
2021/12/04 01:23:16;;;;;;;54.58;30.75;;;;;;;6.23;100.00;99759.72;5079722;27;20052;-65
2021/12/04 01:25:42;;;;;;;58.00;32.13;;;;;;;6.06;100.00;99753.81;5116779;27;20044;-65
2021/12/04 01:28:08;;;;;;;55.17;30.85;;;;;;;5.99;100.00;99765.00;5119174;27;20027;-66
2021/12/04 01:30:34;;;;;;;55.67;30.65;;;;;;;6.20;100.00;99759.47;5118472;27;20068;-66
2021/12/04 01:33:00;;;;;;;60.70;33.00;;;;;;;6.33;100.00;99758.03;5118567;27;20111;-66
2021/12/04 01:35:26;;;;;;;57.53;32.65;;;;;;;6.19;100.00;99761.34;5100982;27;20034;-66
2021/12/04 01:37:52;;;;;;;58.20;30.88;;;;;;;6.34;100.00;99760.47;5122345;27;20023;-66
2021/12/04 01:40:18;;;;;;;55.60;29.50;;;;;;;6.29;100.00;99754.25;5094589;27;20051;-67
2021/12/04 01:42:44;;;;;;;55.75;31.33;;;;;;;6.22;100.00;99757.28;5105236;27;20038;-66
2021/12/04 01:45:10;;;;;;;58.70;31.60;;;;;;;6.31;100.00;99765.66;5084100;27;20031;-66
2021/12/04 01:47:36;;;;;;;56.95;30.95;;;;;;;6.22;100.00;99768.97;5124418;27;20025;-66
2021/12/04 01:50:03;;;;;;;63.55;31.45;;;;;;;6.39;100.00;99765.06;5100394;27;20039;-67
2021/12/04 01:52:29;;;;;;;60.97;31.13;;;;;;;6.24;100.00;99768.69;5125752;27;20027;-65
2021/12/04 01:54:56;;;;;;;60.75;31.77;;;;;;;6.18;100.00;99762.47;5118106;27;21199;-65
2021/12/04 01:57:22;;;;;;;57.88;30.90;;;;;;;6.12;100.00;99768.22;5106296;27;20031;-65
2021/12/04 01:59:48;;;;;;;55.35;30.08;;;;;;;6.15;100.00;99764.91;5102839;27;20396;-66
2021/12/04 02:02:14;;;;;;;62.20;31.45;;;;;;;6.23;100.00;99759.72;5122482;27;20046;-66
2021/12/04 02:04:39;;;;;;;66.43;33.03;;;;;;;6.06;100.00;99759.25;5122115;27;20023;-66
2021/12/04 02:07:05;;;;;;;60.63;30.45;;;;;;;6.17;100.00;99763.56;5121847;27;20442;-66
2021/12/04 02:09:32;;;;;;;61.83;32.20;;;;;;;6.29;100.00;99760.50;5122139;27;20042;-66
2021/12/04 02:11:58;;;;;;;61.30;30.83;;;;;;;6.22;100.00;99760.81;5121507;27;20499;-65
2021/12/04 02:14:23;;;;;;;59.65;30.15;;;;;;;6.33;100.00;99756.13;5100755;27;20078;-66
2021/12/04 02:16:50;;;;;;;61.15;30.92;;;;;;;6.30;100.00;99764.06;5106209;27;20146;-66
2021/12/04 02:19:16;;;;;;;64.18;31.23;;;;;;;6.32;100.00;99756.41;5101010;27;20754;-65
2021/12/04 02:21:42;;;;;;;67.00;32.17;;;;;;;6.15;100.00;99748.59;5106103;27;20076;-65
2021/12/04 02:24:07;;;;;;;62.25;30.80;;;;;;;6.23;100.00;99739.84;5101168;27;20063;-66
2021/12/04 02:26:32;;;;;;;61.85;32.63;;;;;;;6.38;100.00;99749.84;5117737;27;20125;-66
2021/12/04 02:28:58;;;;;;;62.08;31.27;;;;;;;6.34;100.00;99756.94;5140853;27;20245;-66
2021/12/04 02:31:26;;;;;;;67.55;30.33;;;;;;;6.08;100.00;99743.44;5107637;27;20446;-67
2021/12/04 02:33:53;;;;;;;63.13;31.17;;;;;;;6.26;100.00;99747.44;5144716;27;20053;-68
2021/12/04 02:36:20;;;;;;;64.30;30.30;;;;;;;6.38;100.00;99745.22;5143708;27;20903;-66
2021/12/04 02:38:50;;;;;;;56.92;29.70;;;;;;;6.37;100.00;99745.50;5121883;27;20573;-66
2021/12/04 02:41:16;;;;;;;63.47;31.23;;;;;;;6.23;100.00;99739.84;5139416;27;20498;-67
2021/12/04 02:43:43;;;;;;;69.30;32.53;;;;;;;6.22;100.00;99744.47;5123342;27;20434;-66
2021/12/04 02:46:09;;;;;;;64.35;31.55;;;;;;;6.44;100.00;99735.94;5088996;27;20457;-67
2021/12/04 02:48:34;;;;;;;73.38;34.15;;;;;;;6.47;100.00;99725.56;5143326;27;20027;-66
2021/12/04 02:51:00;;;;;;;74.93;32.22;;;;;;;6.46;100.00;99724.75;5141599;27;20023;-65
2021/12/04 02:53:26;;;;;;;72.60;32.97;;;;;;;6.42;100.00;99727.19;5123667;27;20034;-66
2021/12/04 02:55:53;;;;;;;61.42;30.33;;;;;;;6.43;100.00;99733.47;5141305;27;20058;-66
2021/12/04 02:58:19;;;;;;;61.38;31.08;;;;;;;6.52;100.00;99726.31;5143919;27;20238;-66
2021/12/04 03:00:49;;;;;;;68.22;31.00;;;;;;;6.27;100.00;99727.31;5118444;27;20035;-65
2021/12/04 03:03:17;;;;;;;71.05;32.13;;;;;;;6.46;100.00;99724.75;5103613;27;20103;-65
2021/12/04 03:05:46;;;;;;;57.70;29.00;;;;;;;6.41;100.00;99722.88;5104655;27;20030;-66
2021/12/04 03:08:13;;;;;;;60.10;29.95;;;;;;;6.44;100.00;99721.47;5104648;27;20129;-66
2021/12/04 03:10:38;;;;;;;73.35;32.33;;;;;;;6.43;100.00;99720.69;5086715;27;20045;-67
2021/12/04 03:13:08;;;;;;;79.15;33.20;;;;;;;6.46;100.00;99716.59;5123236;27;20023;-66
2021/12/04 03:15:34;;;;;;;67.13;30.23;;;;;;;6.41;100.00;99717.44;5069029;27;20023;-66
2021/12/04 03:18:00;;;;;;;75.47;32.53;;;;;;;6.52;100.00;99710.00;5123139;27;20031;-66
2021/12/04 03:20:25;;;;;;;74.25;31.17;;;;;;;6.39;100.00;99708.72;5083637;27;20511;-66
2021/12/04 03:22:58;;;;;;;72.50;30.75;;;;;;;6.47;100.00;99707.31;5104216;27;20489;-66
2021/12/04 03:25:23;;;;;;;75.78;33.40;;;;;;;6.51;100.00;99702.94;5098633;27;20031;-67
2021/12/04 03:27:50;;;;;;;97.13;33.53;;;;;;;6.37;100.00;99693.75;5123522;27;20031;-66
2021/12/04 03:30:39;;;;;;;69.57;31.58;;;;;;;6.42;100.00;99699.97;5115289;27;20027;-66
2021/12/04 03:35:18;;;;;;;68.95;30.25;;;;;;;6.44;100.00;99683.34;5122478;27;20118;-66
2021/12/04 03:41:29;;;;;;;81.63;31.45;;;;;;;6.49;100.00;99679.78;5118940;27;20145;-65
2021/12/04 03:43:54;;;;;;;69.03;29.45;;;;;;;6.46;100.00;99672.19;5119881;27;20064;-66
2021/12/04 03:46:19;;;;;;;68.97;29.40;;;;;;;6.44;100.00;99675.19;5120050;27;20456;-67
2021/12/04 03:51:10;;;;;;;63.60;28.40;;;;;;;6.44;100.00;99670.59;5101150;27;20035;-66
2021/12/04 03:53:36;;;;;;;70.18;30.48;;;;;;;6.36;100.00;99668.47;5104836;27;20031;-66
2021/12/04 03:56:05;;;;;;;74.53;30.73;;;;;;;6.39;100.00;99672.50;5120421;27;20100;-67
2021/12/04 03:58:30;;;;;;;63.47;28.08;;;;;;;6.48;100.00;99667.25;5082578;27;20042;-66
2021/12/04 04:00:56;;;;;;;66.70;29.52;;;;;;;6.43;100.00;99662.69;5100169;27;20232;-65
2021/12/04 04:03:21;;;;;;;81.28;31.02;;;;;;;6.47;100.00;99674.63;5120193;27;20027;-66
2021/12/04 04:05:47;;;;;;;89.35;31.67;;;;;;;6.26;100.00;99671.22;5101630;27;20477;-66
2021/12/04 04:08:15;;;;;;;86.07;31.92;;;;;;;6.43;100.00;99665.41;5100019;27;20174;-67
2021/12/04 04:10:42;;;;;;;78.57;30.70;;;;;;;6.45;100.00;99665.94;5118819;27;20031;-66
2021/12/04 04:13:11;;;;;;;68.55;28.83;;;;;;;6.44;100.00;99667.84;5121093;27;20122;-65
2021/12/04 04:15:37;;;;;;;84.00;31.35;;;;;;;6.36;100.00;99656.75;5082860;27;20050;-66
2021/12/04 04:18:04;;;;;;;70.53;29.92;;;;;;;6.49;100.00;99655.28;5122040;27;20018;-66
2021/12/04 04:20:30;;;;;;;80.93;32.15;;;;;;;6.51;100.00;99643.03;5099792;27;20721;-66
2021/12/04 04:22:56;;;;;;;85.72;30.85;;;;;;;6.56;100.00;99648.44;5104497;27;20038;-66
2021/12/04 04:25:22;;;;;;;75.10;29.35;;;;;;;6.65;100.00;99647.81;5117889;27;20409;-66
2021/12/04 04:27:47;;;;;;;74.13;31.08;;;;;;;6.66;100.00;99655.72;5122791;27;20092;-67
2021/12/04 04:30:18;;;;;;;71.97;30.10;;;;;;;6.73;100.00;99648.00;5115826;27;20031;-67
2021/12/04 04:32:45;;;;;;;64.68;29.33;;;;;;;6.67;100.00;99654.59;5122665;27;20027;-66
2021/12/04 04:35:18;;;;;;;66.20;29.33;;;;;;;6.71;100.00;99652.94;5118272;27;20447;-66
2021/12/04 05:02:25;;;;;;;67.68;28.40;;;;;;;6.57;100.00;99630.97;5113546;27;20076;-66
2021/12/04 05:13:05;;;;;;;71.22;28.63;;;;;;;6.44;100.00;99621.56;5137880;27;20034;-67
2021/12/04 05:18:57;;;;;;;71.88;29.25;;;;;;;6.53;100.00;99613.59;5124739;27;20112;-65
2021/12/04 05:21:04;;;;;;;83.45;29.92;;;;;;;6.57;100.00;99611.91;5121376;27;20043;-66
2021/12/04 05:23:35;;;;;;;79.28;29.85;;;;;;;6.49;100.00;99601.63;5138932;27;20047;-66
2021/12/04 05:26:04;;;;;;;79.35;30.63;;;;;;;6.58;100.00;99593.69;5118101;27;20023;-66
2021/12/04 05:28:30;;;;;;;80.05;30.73;;;;;;;6.56;100.00;99593.13;5138528;27;20173;-67
2021/12/04 05:30:57;;;;;;;74.88;29.52;;;;;;;6.53;100.00;99594.53;5138380;27;20526;-66
2021/12/04 05:33:23;;;;;;;64.80;27.13;;;;;;;6.38;100.00;99591.94;5120278;27;20031;-65
2021/12/04 05:35:48;;;;;;;67.40;28.25;;;;;;;6.45;100.00;99595.16;5120749;27;20125;-66
2021/12/04 05:38:16;;;;;;;61.45;27.67;;;;;;;6.50;100.00;99600.53;5138904;27;20080;-66
2021/12/04 05:40:42;;;;;;;68.97;28.63;;;;;;;6.51;100.00;99594.00;5116051;27;20096;-65
2021/12/04 05:43:09;;;;;;;65.28;27.80;;;;;;;6.56;100.00;99599.41;5121301;27;20333;-65
2021/12/04 05:45:39;;;;;;;63.97;26.88;;;;;;;6.52;100.00;99597.53;5114515;27;20757;-66
2021/12/04 05:48:22;;;;;;;70.80;29.05;;;;;;;6.51;100.00;99596.75;5121708;27;20135;-66
2021/12/04 05:55:53;;;;;;;67.32;27.77;;;;;;;6.46;100.00;99587.78;5097720;28;20028;-66
2021/12/04 05:58:25;;;;;;;69.97;27.42;;;;;;;6.30;100.00;99581.69;5098624;28;20135;-65
2021/12/04 06:00:52;;;;;;;65.53;28.60;;;;;;;6.38;100.00;99587.31;5097052;28;20093;-66
2021/12/04 06:03:18;;;;;;;62.92;28.45;;;;;;;6.35;100.00;99597.97;5098089;28;20035;-65
2021/12/04 06:05:44;;;;;;;75.15;29.80;;;;;;;6.43;100.00;99597.34;5096918;28;20023;-66
2021/12/04 06:08:11;;;;;;;77.72;29.27;;;;;;;6.49;100.00;99590.75;5098182;28;20348;-67
2021/12/04 06:10:38;;;;;;;66.22;28.35;;;;;;;6.52;100.00;99594.81;5093835;28;20102;-67
2021/12/04 06:13:04;;;;;;;65.13;26.55;;;;;;;6.42;100.00;99587.56;5103805;28;20057;-67
2021/12/04 06:15:30;;;;;;;72.20;27.23;;;;;;;6.30;100.00;99578.97;5075933;28;20054;-67
2021/12/04 06:17:56;;;;;;;69.18;28.00;;;;;;;6.26;100.00;99584.13;5100605;28;20035;-67
2021/12/04 06:23:07;;;;;;;67.32;27.70;;;;;;;6.41;100.00;99581.31;5098427;28;20101;-66
2021/12/04 06:25:33;;;;;;;72.10;28.95;;;;;;;6.49;100.00;99582.56;5081859;28;20145;-66
2021/12/04 06:27:58;;;;;;;71.43;28.58;;;;;;;6.34;100.00;99582.72;5119717;28;20110;-67
2021/12/04 06:30:25;;;;;;;62.47;26.55;;;;;;;6.24;100.00;99570.81;5117161;27;20118;-67
2021/12/04 06:32:53;;;;;;;64.03;26.50;;;;;;;6.27;100.00;99563.19;5126185;27;20027;-66
2021/12/04 06:35:23;;;;;;;69.22;27.33;;;;;;;6.27;100.00;99565.91;5105148;27;20095;-67
2021/12/04 06:37:49;;;;;;;61.92;26.23;;;;;;;6.36;100.00;99573.19;5102776;28;20065;-66
2021/12/04 06:40:17;;;;;;;64.35;27.38;;;;;;;6.37;100.00;99568.53;5102339;27;20154;-67
2021/12/04 06:42:43;;;;;;;62.92;25.83;;;;;;;6.22;100.00;99574.94;5089356;27;20641;-66
2021/12/04 06:45:09;;;;;;;56.38;25.30;;;;;;;6.23;100.00;99577.38;5118911;27;20047;-67
2021/12/04 06:47:36;;;;;;;59.00;25.85;;;;;;;6.15;100.00;99571.69;5103203;27;20046;-67
2021/12/04 06:50:09;;;;;;;59.38;24.85;;;;;;;6.24;100.00;99578.97;5123442;27;20075;-66
2021/12/04 06:52:35;;;;;;;54.60;22.80;;;;;;;6.22;100.00;99566.75;5104369;27;20031;-66
2021/12/04 06:55:02;;;;;;;52.17;23.63;;;;;;;6.13;100.00;99565.72;5118076;27;20035;-66
2021/12/04 06:57:36;;;;;;;57.38;25.02;;;;;;;6.13;100.00;99571.97;5121899;27;20485;-66
2021/12/04 07:00:03;;;;;;;57.72;24.20;;;;;;;6.05;100.00;99556.25;5120478;27;20461;-66
2021/12/04 07:02:29;;;;;;;57.05;26.33;;;;;;;6.06;100.00;99566.84;5121822;27;20054;-66
2021/12/04 07:04:54;;;;;;;56.17;24.60;;;;;;;6.06;100.00;99563.34;5101689;27;20505;-66
2021/12/04 07:07:20;;;;;;;56.60;22.38;;;;;;;5.89;100.00;99564.50;5123301;27;20023;-66
2021/12/04 07:09:46;;;;;;;52.92;23.80;;;;;;;6.06;100.00;99569.56;5065564;27;20030;-66
2021/12/04 07:12:11;;;;;;;55.55;23.50;;;;;;;5.99;100.00;99558.22;5124417;27;20034;-67
2021/12/04 07:14:38;;;;;;;54.25;23.98;;;;;;;6.04;100.00;99554.66;5108933;27;20090;-66
2021/12/04 07:17:05;;;;;;;50.53;22.60;;;;;;;5.93;100.00;99558.50;5146277;27;20064;-66
2021/12/04 07:19:32;;;;;;;46.70;20.63;;;;;;;5.95;100.00;99561.75;5142031;27;20053;-66
2021/12/04 07:21:58;;;;;;;46.88;20.38;;;;;;;5.94;100.00;99560.13;5143586;27;20027;-66
2021/12/04 07:24:26;;;;;;;43.70;20.70;;;;;;;5.97;100.00;99548.69;5123032;27;20030;-65
2021/12/04 07:26:52;;;;;;;42.08;20.38;;;;;;;6.00;100.00;99538.09;5141300;27;20766;-65
2021/12/04 07:29:17;;;;;;;39.45;21.13;;;;;;;6.14;100.00;99534.72;5143461;27;20429;-67
2021/12/04 07:31:43;;;;;;;52.30;23.35;;;;;;;6.24;100.00;99529.16;5140194;27;20355;-67
2021/12/04 07:34:08;;;;;;;48.67;23.13;;;;;;;6.18;100.00;99525.69;5142285;27;20041;-66
2021/12/04 07:36:34;;;;;;;52.22;22.60;;;;;;;5.87;100.00;99530.50;5141915;27;20027;-66
2021/12/04 07:39:00;;;;;;;38.42;19.27;;;;;;;5.85;100.00;99528.09;5141192;27;20027;-66
2021/12/04 07:41:27;;;;;;;41.50;20.40;;;;;;;6.02;100.00;99524.19;5135867;27;20065;-67
2021/12/04 07:43:53;;;;;;;39.30;18.92;;;;;;;6.09;100.00;99530.13;5138840;27;20315;-67
2021/12/04 07:46:19;;;;;;;35.28;19.70;;;;;;;6.04;100.00;99522.81;5131849;27;20091;-66
2021/12/04 07:48:46;;;;;;;41.40;20.98;;;;;;;5.89;100.00;99517.47;5120203;27;20027;-67
2021/12/04 07:51:13;;;;;;;48.53;22.65;;;;;;;5.92;100.00;99519.63;5140436;27;20038;-67
2021/12/04 07:53:39;;;;;;;45.03;21.23;;;;;;;5.73;100.00;99519.47;5136263;27;20031;-66
2021/12/04 07:56:07;;;;;;;57.50;23.15;;;;;;;5.79;100.00;99510.19;5121594;27;20479;-67
2021/12/04 07:58:32;;;;;;;52.53;23.48;;;;;;;5.92;100.00;99508.72;5139826;27;20027;-66
2021/12/04 08:00:58;;;;;;;48.50;22.77;;;;;;;5.97;100.00;99513.31;5137144;27;20030;-68
2021/12/04 08:03:24;;;;;;;52.67;23.45;;;;;;;6.04;100.00;99513.84;5122429;27;20114;-67
2021/12/04 08:05:50;;;;;;;55.88;22.50;;;;;;;5.79;100.00;99499.31;5120826;27;20499;-65
2021/12/04 08:08:16;;;;;;;53.92;23.42;;;;;;;5.95;100.00;99494.56;5140646;27;20429;-67
2021/12/04 08:10:42;;;;;;;51.78;24.08;;;;;;;5.96;100.00;99509.81;5117389;27;20057;-68
2021/12/04 08:13:08;;;;;;;57.47;23.35;;;;;;;5.89;100.00;99520.19;5107615;27;20537;-66
2021/12/04 08:15:36;;;;;;;63.30;23.73;;;;;;;5.89;100.00;99520.19;5118639;27;20441;-67
2021/12/04 08:18:02;;;;;;;56.97;24.50;;;;;;;5.95;100.00;99520.94;5125276;27;20394;-67
2021/12/04 08:20:28;;;;;;;62.13;24.65;;;;;;;5.83;100.00;99530.25;5139238;27;20167;-67
2021/12/04 08:22:54;;;;;;;64.70;23.98;;;;;;;5.71;100.00;99529.81;5107060;27;20117;-66
2021/12/04 08:25:20;;;;;;;69.78;24.50;;;;;;;5.64;100.00;99535.56;5117464;27;20061;-63
2021/12/04 08:27:48;;;;;;;85.38;28.75;;;;;;;5.84;100.00;99539.25;5104446;27;20039;-66
2021/12/04 08:30:18;;;;;;;64.93;26.27;;;;;;;5.75;100.00;99535.50;5119251;27;20047;-66
2021/12/04 08:32:44;;;;;;;76.30;27.05;;;;;;;5.63;100.00;99528.50;5105255;27;20451;-67
2021/12/04 08:35:17;;;;;;;66.35;26.02;;;;;;;5.68;100.00;99528.47;5122668;27;20537;-68
2021/12/04 08:37:43;;;;;;;66.82;26.88;;;;;;;5.78;100.00;99533.03;5139958;27;20023;-68
2021/12/04 08:40:13;;;;;;;63.00;25.23;;;;;;;5.69;100.00;99535.53;5136303;27;20107;-66
2021/12/04 08:42:40;;;;;;;61.35;22.85;;;;;;;5.67;100.00;99534.19;5140888;27;20022;-66
2021/12/04 08:45:08;;;;;;;49.60;20.73;;;;;;;5.73;100.00;99533.06;5116820;27;20365;-66
2021/12/04 08:47:34;;;;;;;52.58;19.90;;;;;;;5.79;100.00;99526.50;5122471;27;20022;-67
2021/12/04 08:50:00;;;;;;;57.75;19.08;;;;;;;5.74;100.00;99517.53;5118872;27;20117;-67
2021/12/04 08:52:26;;;;;;;39.45;16.88;;;;;;;5.84;100.00;99506.63;5139951;27;20125;-66
2021/12/04 08:54:51;;;;;;;40.28;17.15;;;;;;;5.96;100.00;99496.19;5096375;27;20052;-66
2021/12/04 08:57:17;;;;;;;35.88;16.70;;;;;;;5.98;100.00;99490.47;5141183;27;20427;-66
2021/12/04 08:59:45;;;;;;;34.50;16.08;;;;;;;5.95;100.00;99497.28;5126353;27;20024;-66
2021/12/04 09:02:11;;;;;;;42.70;16.42;;;;;;;5.68;100.00;99500.47;5084673;27;20495;-66
2021/12/04 09:04:37;;;;;;;34.05;15.50;;;;;;;5.78;100.00;99497.66;5098365;27;20046;-66
2021/12/04 09:07:04;;;;;;;37.22;15.88;;;;;;;5.77;100.00;99482.47;5101821;27;20027;-65
2021/12/04 09:09:31;;;;;;;37.30;16.00;;;;;;;5.98;100.00;99483.13;5115712;27;20114;-66
2021/12/04 09:12:00;;;;;;;42.45;16.30;;;;;;;5.85;100.00;99475.59;5081598;27;20114;-67
2021/12/04 09:14:30;;;;;;;40.90;16.63;;;;;;;5.92;100.00;99484.25;5096553;27;20670;-65
2021/12/04 09:16:58;;;;;;;35.88;16.10;;;;;;;5.79;100.00;99487.59;5098719;27;20027;-67
2021/12/04 09:19:24;;;;;;;38.20;18.02;;;;;;;5.87;100.00;99487.81;5119627;27;20743;-66
2021/12/04 09:21:52;;;;;;;38.45;16.25;;;;;;;5.84;100.00;99488.38;5099673;27;20120;-66
2021/12/04 09:24:24;;;;;;;38.72;16.83;;;;;;;5.97;100.00;99475.25;5116725;27;20027;-67
2021/12/04 10:18:48;;;;;;;49.92;21.48;;;;;;;6.20;100.00;99439.13;5066299;27;20035;-65
2021/12/04 10:35:00;;;;;;;53.95;23.17;;;;;;;6.84;100.00;99422.63;5118034;27;20030;-66
2021/12/04 10:37:28;;;;;;;59.65;24.48;;;;;;;6.71;100.00;99426.06;5124784;27;20019;-67
2021/12/04 10:39:57;;;;;;;57.90;25.40;;;;;;;6.85;100.00;99426.16;5113611;27;20050;-67
2021/12/04 10:42:27;;;;;;;64.50;26.67;;;;;;;6.78;100.00;99423.78;5146358;27;20026;-67
2021/12/04 10:44:55;;;;;;;56.38;26.50;;;;;;;6.87;100.00;99424.78;5116951;27;20113;-67
2021/12/04 10:47:24;;;;;;;66.00;26.73;;;;;;;6.92;100.00;99421.16;5103865;27;20095;-66
2021/12/04 10:52:51;;;;;;;58.53;25.27;;;;;;;6.84;100.00;99419.91;5123628;27;20392;-67
2021/12/04 10:55:40;;;;;;;66.82;26.48;;;;;;;6.75;100.00;99416.19;5117157;27;20042;-66
2021/12/04 11:00:53;;;;;;;69.35;29.00;;;;;;;7.01;100.00;99413.94;5120694;27;20019;-67
2021/12/04 11:07:04;;;;;;;76.25;30.08;;;;;;;6.67;100.00;99409.47;5106750;27;20046;-67
2021/12/04 11:36:29;;;;;;;64.03;29.45;;;;;;;6.82;100.00;99351.25;5107723;27;20049;-67
2021/12/04 11:43:58;;;;;;;61.65;27.85;;;;;;;7.04;100.00;99333.53;5138678;27;20455;-67
2021/12/04 11:46:39;;;;;;;71.38;30.13;;;;;;;7.08;100.00;99331.81;5090721;27;20026;-67
2021/12/04 11:49:20;;;;;;;63.33;28.55;;;;;;;7.04;100.00;99328.09;5141076;27;20018;-68
2021/12/04 11:51:59;;;;;;;63.38;29.17;;;;;;;7.02;100.00;99333.00;5120794;27;20033;-67
2021/12/04 11:54:49;;;;;;;65.25;28.08;;;;;;;7.10;100.00;99330.44;5137969;27;20109;-67
2021/12/04 11:57:26;;;;;;;72.90;30.45;;;;;;;7.07;100.00;99335.69;5125223;27;20121;-67
2021/12/04 11:59:52;;;;;;;72.00;31.02;;;;;;;6.73;100.00;99353.84;5104125;27;20462;-68
2021/12/04 12:02:22;;;;;;;67.78;28.50;;;;;;;6.73;100.00;99355.75;5123985;27;20063;-67
2021/12/04 12:04:54;;;;;;;64.60;29.98;;;;;;;6.86;100.00;99349.56;5100656;27;20507;-68
2021/12/04 12:07:23;;;;;;;83.18;29.10;;;;;;;6.81;100.00;99345.00;5122195;27;20027;-68
2021/12/04 12:10:10;;;;;;;69.93;28.55;;;;;;;6.75;100.00;99342.66;5094097;27;20372;-68
2021/12/04 12:12:38;;;;;;;62.58;27.95;;;;;;;6.71;100.00;99339.72;5121549;27;20051;-69
2021/12/04 12:15:23;;;;;;;64.10;26.13;;;;;;;6.68;100.00;99343.00;5109121;27;20428;-69
2021/12/04 12:17:50;;;;;;;61.95;26.55;;;;;;;6.65;100.00;99329.19;5122335;27;20026;-66
2021/12/04 12:20:39;;;;;;;58.28;24.83;;;;;;;6.89;100.00;99329.13;5119065;27;20051;-68
2021/12/04 12:23:09;;;;;;;58.42;25.75;;;;;;;7.00;100.00;99314.22;5141003;27;20245;-68
2021/12/04 12:26:27;;;;;;;54.95;23.83;;;;;;;7.01;100.00;99315.84;5115279;27;20269;-68
2021/12/04 12:32:14;;;;;;;53.95;23.95;;;;;;;7.16;100.00;99312.88;5142430;27;20037;-69
2021/12/04 12:37:26;;;;;;;52.83;23.70;;;;;;;7.21;100.00;99313.91;5143294;27;20027;-68
2021/12/04 12:39:59;;;;;;;48.97;22.13;;;;;;;7.13;100.00;99309.94;5131819;27;20059;-68
2021/12/04 12:42:31;;;;;;;46.80;21.30;;;;;;;7.06;100.00;99313.03;5120598;27;20042;-68
2021/12/04 12:45:15;;;;;;;44.20;19.67;;;;;;;6.92;100.00;99313.00;5098390;27;20034;-69
2021/12/04 12:48:00;;;;;;;42.90;20.67;;;;;;;6.89;100.00;99308.13;5101619;27;20888;-69
2021/12/04 12:50:38;;;;;;;44.30;20.73;;;;;;;7.03;100.00;99313.63;5119916;27;20023;-69
2021/12/04 12:53:11;;;;;;;43.30;21.08;;;;;;;7.00;100.00;99314.22;5120575;27;20030;-69
2021/12/04 12:55:38;;;;;;;43.60;21.20;;;;;;;6.86;100.00;99319.63;5098921;27;20430;-68
2021/12/04 12:58:42;;;;;;;44.25;20.90;;;;;;;6.68;100.00;99328.59;5140774;27;20118;-68
2021/12/04 13:12:50;;;;;;;13.40;6.47;;;;;;;6.38;100.00;99312.38;5147007;27;20078;-68
2021/12/04 13:15:33;;;;;;;10.82;4.85;;;;;;;6.30;100.00;99315.72;5118897;27;20019;-68
2021/12/04 13:18:13;;;;;;;7.82;1.92;;;;;;;6.02;100.00;99314.72;5141611;27;20034;-67
2021/12/04 13:20:39;;;;;;;8.70;1.92;;;;;;;6.23;100.00;99315.25;5139464;27;20014;-68
2021/12/04 13:23:13;;;;;;;5.85;1.83;;;;;;;6.08;100.00;99316.25;5141688;27;20397;-69
2021/12/04 13:25:47;;;;;;;7.90;1.50;;;;;;;6.19;100.00;99311.50;5118073;27;20061;-68
2021/12/04 13:30:44;;;;;;;4.80;0.93;;;;;;;6.16;100.00;99320.25;5137869;27;20025;-69
2021/12/04 13:33:10;;;;;;;4.25;0.88;;;;;;;6.14;100.00;99323.25;5142161;27;20531;-69
2021/12/04 13:35:35;;;;;;;7.97;1.38;;;;;;;6.14;100.00;99320.53;5141899;27;20133;-69
2021/12/04 13:38:03;;;;;;;6.72;1.80;;;;;;;6.09;100.00;99328.75;5126045;27;20456;-68
2021/12/04 13:40:29;;;;;;;5.80;1.67;;;;;;;6.04;100.00;99329.63;5136953;27;20111;-68
2021/12/04 13:42:55;;;;;;;5.75;1.30;;;;;;;6.06;100.00;99335.56;5127146;27;20057;-68
2021/12/04 13:45:21;;;;;;;6.75;1.40;;;;;;;5.92;100.00;99340.06;5108069;27;20062;-68
2021/12/04 13:47:55;;;;;;;6.72;1.90;;;;;;;6.24;100.00;99330.50;5145924;27;20031;-69
2021/12/04 13:53:03;;;;;;;3.15;1.55;;;;;;;6.27;100.00;99327.19;5144946;27;20117;-68
2021/12/04 13:55:34;;;;;;;9.68;2.40;;;;;;;6.19;100.00;99334.09;5139661;27;20031;-69
2021/12/04 13:58:02;;;;;;;5.35;1.90;;;;;;;6.25;100.00;99327.47;5125833;27;20022;-68
2021/12/04 14:00:29;;;;;;;4.78;2.50;;;;;;;6.38;100.00;99334.13;5139212;27;20054;-68
2021/12/04 14:02:54;;;;;;;7.18;2.38;;;;;;;6.34;100.00;99335.81;5146734;27;20026;-67
2021/12/04 14:05:23;;;;;;;6.07;2.00;;;;;;;6.19;100.00;99341.44;5124067;27;20051;-68
2021/12/04 14:07:52;;;;;;;6.78;2.13;;;;;;;6.29;100.00;99332.34;5145744;27;20019;-68
2021/12/04 14:10:30;;;;;;;6.25;1.60;;;;;;;6.25;100.00;99335.66;5115520;27;20050;-69
2021/12/04 14:12:57;;;;;;;4.93;1.75;;;;;;;6.33;100.00;99339.66;5143824;27;20467;-67
2021/12/04 14:15:24;;;;;;;4.95;1.88;;;;;;;6.40;100.00;99345.53;5083838;27;20031;-68
2021/12/04 14:17:56;;;;;;;3.97;1.55;;;;;;;6.20;100.00;99348.53;5107551;27;20490;-68
2021/12/04 14:20:23;;;;;;;7.35;2.13;;;;;;;6.18;100.00;99350.69;5090408;27;20039;-67
2021/12/04 14:22:55;;;;;;;10.88;2.33;;;;;;;6.27;100.00;99356.34;5106770;27;20023;-67
2021/12/04 14:25:22;;;;;;;7.97;2.40;;;;;;;6.36;100.00;99357.28;5118144;27;20026;-68
2021/12/04 14:27:49;;;;;;;6.28;2.72;;;;;;;6.42;100.00;99346.06;5143833;27;20095;-68
2021/12/04 14:30:18;;;;;;;13.27;2.95;;;;;;;6.36;100.00;99346.41;5101980;27;20436;-68
2021/12/04 14:32:50;;;;;;;12.93;3.10;;;;;;;6.55;100.00;99352.69;5145691;27;20429;-68
2021/12/04 14:35:17;;;;;;;9.43;2.97;;;;;;;6.55;100.00;99349.97;5143250;27;20478;-67
2021/12/04 14:37:48;;;;;;;15.77;3.25;;;;;;;6.48;100.00;99360.44;5145499;27;20026;-68